Terminal Aerodrome Forecast
Issued by NWS Charleston, WV

Current Version | Previous Version | Graphics & Text | Print | Product List | Glossary On
Versions: 1 2 3 4 5 6 7 8 9 10 11 12 13 14 15 16 17 18 19 20 21 22 23 24 25
000
FTUS41 KRLX 260800 AAA
TAFCRW
TAF AMD
KCRW 260820Z 2608/2706 VRB03KT 4SM -RA BR SCT025 OVC035
     FM260900 05004KT P6SM OVC035
     FM261000 00000KT P6SM OVC025
     FM261200 00000KT P6SM OVC018
     FM261500 22005KT 4SM -RAPLSN BR OVC012
     FM261700 28007KT 3SM -SN BR OVC010
     FM261900 29008KT 1SM -SN OVC005
     FM262200 29007KT 3SM -SN OVC015=

USA.gov is the U.S. government's official web portal to all federal, state and local government web resources and services.